Highbluff, Alabama
Current Conditions -  °F | °C
As of 4:58 PM on Saturday 25 Oct 2014 (Local Time) from KOZR Reporting Station
Clear Clear  
Wind Chill: 76°   Ceiling: Unl
Heat Index: 76°   Visibility: 10mi
Dew Point: 50°   Wind: 7mph
Humidity: 40%   Direction: 320°NW
Pressure: 30.02"   Gusts: NA
Location:  31.0743°N, 85.7353°W
Report Text: KOZR 252158Z AUTO 32006KT 10SM CLR 24/10 A3002 RMK AO2 SLP167 T02420098
Loading
Personal Weather Stations






























Interactive Weather Map
Tropical Storm Tracking
New forecast layout! Learn more

10-Day Weather Forecast

Advertisements
Track Severe Weather on mobile